Hill Country Village, Texas
Current Conditions -  °F | °C
As of 6:25 PM on Thursday 18 Dec 2014 (Local Time) from KSAT Reporting Station
Overcast Overcast  
Wind Chill: 62°   Ceiling: 900
Heat Index: 62°   Visibility: 10mi
Dew Point: 58°   Wind: 8mph
Humidity: 86%   Direction: 60°ENE
Pressure: 30.02"   Gusts: NA
Location:  29.5876°N, 98.474°W
Report Text: KSAT 190025Z 06007KT 10SM OVC009 17/14 A3002 RMK AO2 T01670144
Loading
Personal Weather Stations






























Interactive Weather Map New forecast layout! Learn more

10-Day Weather Forecast

Advertisements
Track Severe Weather on mobile